sensor_id;sensor_type;location;lat;lon;timestamp;temperature;humidity
23769;DHT22;12064;50.890;5.424;2023-04-24T00:02:30;18.90;85.10
23769;DHT22;12064;50.890;5.424;2023-04-24T00:11:22;18.90;85.10
23769;DHT22;12064;50.890;5.424;2023-04-24T00:20:12;18.90;85.30
23769;DHT22;12064;50.890;5.424;2023-04-24T00:29:05;18.90;85.30
23769;DHT22;12064;50.890;5.424;2023-04-24T00:37:55;18.90;85.30
23769;DHT22;12064;50.890;5.424;2023-04-24T00:46:46;18.90;85.20
23769;DHT22;12064;50.890;5.424;2023-04-24T00:55:42;18.80;86.10
23769;DHT22;12064;50.890;5.424;2023-04-24T01:04:33;18.80;85.40
23769;DHT22;12064;50.890;5.424;2023-04-24T01:13:24;18.80;85.40
23769;DHT22;12064;50.890;5.424;2023-04-24T01:22:15;18.80;85.50
23769;DHT22;12064;50.890;5.424;2023-04-24T01:31:06;18.80;85.50
23769;DHT22;12064;50.890;5.424;2023-04-24T01:39:57;18.80;85.70
23769;DHT22;12064;50.890;5.424;2023-04-24T01:48:48;18.80;85.70
23769;DHT22;12064;50.890;5.424;2023-04-24T01:57:39;18.80;85.70
23769;DHT22;12064;50.890;5.424;2023-04-24T02:06:31;18.80;86.00
23769;DHT22;12064;50.890;5.424;2023-04-24T02:15:22;18.80;85.90
23769;DHT22;12064;50.890;5.424;2023-04-24T02:24:13;18.70;86.00
23769;DHT22;12064;50.890;5.424;2023-04-24T02:33:04;18.80;86.10
23769;DHT22;12064;50.890;5.424;2023-04-24T02:41:54;18.70;87.00
23769;DHT22;12064;50.890;5.424;2023-04-24T02:50:45;18.70;86.50
23769;DHT22;12064;50.890;5.424;2023-04-24T02:59:36;18.70;86.70
23769;DHT22;12064;50.890;5.424;2023-04-24T03:08:26;18.70;86.80
23769;DHT22;12064;50.890;5.424;2023-04-24T03:17:17;18.70;86.70
23769;DHT22;12064;50.890;5.424;2023-04-24T03:26:08;18.70;86.60
23769;DHT22;12064;50.890;5.424;2023-04-24T03:34:59;18.70;86.80
23769;DHT22;12064;50.890;5.424;2023-04-24T03:43:49;18.60;87.60
23769;DHT22;12064;50.890;5.424;2023-04-24T03:52:40;18.60;86.60
23769;DHT22;12064;50.890;5.424;2023-04-24T04:01:31;18.60;86.80
23769;DHT22;12064;50.890;5.424;2023-04-24T04:10:21;18.60;87.10
23769;DHT22;12064;50.890;5.424;2023-04-24T04:19:12;18.60;87.10
23769;DHT22;12064;50.890;5.424;2023-04-24T04:28:02;18.60;87.20
23769;DHT22;12064;50.890;5.424;2023-04-24T04:36:53;18.60;87.40
23769;DHT22;12064;50.890;5.424;2023-04-24T04:45:44;18.60;87.40
23769;DHT22;12064;50.890;5.424;2023-04-24T04:54:35;18.50;87.40
23769;DHT22;12064;50.890;5.424;2023-04-24T05:03:26;18.60;87.60
23769;DHT22;12064;50.890;5.424;2023-04-24T05:12:16;18.50;87.70
23769;DHT22;12064;50.890;5.424;2023-04-24T05:21:07;18.50;88.10
23769;DHT22;12064;50.890;5.424;2023-04-24T05:29:57;18.50;87.20
23769;DHT22;12064;50.890;5.424;2023-04-24T05:38:48;18.40;86.50
23769;DHT22;12064;50.890;5.424;2023-04-24T05:47:39;18.40;86.00
23769;DHT22;12064;50.890;5.424;2023-04-24T05:56:29;18.40;85.60
23769;DHT22;12064;50.890;5.424;2023-04-24T06:05:21;18.40;85.30
23769;DHT22;12064;50.890;5.424;2023-04-24T06:14:11;18.30;85.20
23769;DHT22;12064;50.890;5.424;2023-04-24T06:23:02;18.30;85.10
23769;DHT22;12064;50.890;5.424;2023-04-24T06:31:53;18.30;85.00
23769;DHT22;12064;50.890;5.424;2023-04-24T06:40:43;18.30;84.70
23769;DHT22;12064;50.890;5.424;2023-04-24T06:49:37;18.30;84.50
23769;DHT22;12064;50.890;5.424;2023-04-24T06:58:28;18.30;84.30
23769;DHT22;12064;50.890;5.424;2023-04-24T07:07:20;18.30;84.10
23769;DHT22;12064;50.890;5.424;2023-04-24T07:16:11;18.30;83.70
23769;DHT22;12064;50.890;5.424;2023-04-24T07:25:03;18.20;83.20
23769;DHT22;12064;50.890;5.424;2023-04-24T07:33:53;18.30;82.90
23769;DHT22;12064;50.890;5.424;2023-04-24T07:42:45;18.20;82.70
23769;DHT22;12064;50.890;5.424;2023-04-24T07:51:39;18.20;82.40
23769;DHT22;12064;50.890;5.424;2023-04-24T08:00:29;18.20;82.20
23769;DHT22;12064;50.890;5.424;2023-04-24T08:09:20;18.30;82.30
23769;DHT22;12064;50.890;5.424;2023-04-24T08:18:11;18.20;82.30
23769;DHT22;12064;50.890;5.424;2023-04-24T08:27:02;18.20;82.50
23769;DHT22;12064;50.890;5.424;2023-04-24T08:35:54;18.20;82.60
23769;DHT22;12064;50.890;5.424;2023-04-24T08:44:45;18.20;82.80
23769;DHT22;12064;50.890;5.424;2023-04-24T08:53:36;17.20;82.10
23769;DHT22;12064;50.890;5.424;2023-04-24T09:02:27;17.80;84.40
23769;DHT22;12064;50.890;5.424;2023-04-24T09:11:18;18.20;82.80
23769;DHT22;12064;50.890;5.424;2023-04-24T09:20:09;18.10;82.70
23769;DHT22;12064;50.890;5.424;2023-04-24T09:28:59;18.20;82.50
23769;DHT22;12064;50.890;5.424;2023-04-24T09:37:51;18.20;82.50
23769;DHT22;12064;50.890;5.424;2023-04-24T09:46:46;18.40;82.10
23769;DHT22;12064;50.890;5.424;2023-04-24T09:55:45;18.60;81.10
23769;DHT22;12064;50.890;5.424;2023-04-24T10:04:36;18.80;80.70
23769;DHT22;12064;50.890;5.424;2023-04-24T10:13:28;18.80;80.00
23769;DHT22;12064;50.890;5.424;2023-04-24T10:22:21;18.70;80.50
23769;DHT22;12064;50.890;5.424;2023-04-24T10:31:15;18.70;80.60
23769;DHT22;12064;50.890;5.424;2023-04-24T10:40:07;18.80;80.20
23769;DHT22;12064;50.890;5.424;2023-04-24T10:48:58;18.80;80.60
23769;DHT22;12064;50.890;5.424;2023-04-24T10:58:04;18.80;80.40
23769;DHT22;12064;50.890;5.424;2023-04-24T11:06:55;18.80;80.40
23769;DHT22;12064;50.890;5.424;2023-04-24T11:16:15;18.80;80.10
23769;DHT22;12064;50.890;5.424;2023-04-24T11:25:10;18.80;80.60
23769;DHT22;12064;50.890;5.424;2023-04-24T11:34:15;18.80;81.10
23769;DHT22;12064;50.890;5.424;2023-04-24T11:43:07;18.90;81.10
23769;DHT22;12064;50.890;5.424;2023-04-24T11:52:02;18.80;81.30
23769;DHT22;12064;50.890;5.424;2023-04-24T12:00:57;18.90;81.10
23769;DHT22;12064;50.890;5.424;2023-04-24T12:09:55;18.90;81.00
23769;DHT22;12064;50.890;5.424;2023-04-24T12:18:46;19.00;80.80
23769;DHT22;12064;50.890;5.424;2023-04-24T12:27:39;19.00;80.80
23769;DHT22;12064;50.890;5.424;2023-04-24T12:36:30;18.80;81.20
23769;DHT22;12064;50.890;5.424;2023-04-24T12:45:21;18.90;81.10
23769;DHT22;12064;50.890;5.424;2023-04-24T12:54:14;18.90;81.10
23769;DHT22;12064;50.890;5.424;2023-04-24T13:03:05;18.90;81.00
23769;DHT22;12064;50.890;5.424;2023-04-24T13:11:55;18.90;81.10
23769;DHT22;12064;50.890;5.424;2023-04-24T13:20:47;18.90;81.20
23769;DHT22;12064;50.890;5.424;2023-04-24T13:29:37;19.00;81.00
23769;DHT22;12064;50.890;5.424;2023-04-24T13:38:28;19.00;81.00
23769;DHT22;12064;50.890;5.424;2023-04-24T13:47:19;18.90;81.10
23769;DHT22;12064;50.890;5.424;2023-04-24T13:56:09;19.10;81.00
23769;DHT22;12064;50.890;5.424;2023-04-24T14:05:00;18.90;81.20
23769;DHT22;12064;50.890;5.424;2023-04-24T14:13:51;19.00;81.20
23769;DHT22;12064;50.890;5.424;2023-04-24T14:22:41;18.90;81.30
23769;DHT22;12064;50.890;5.424;2023-04-24T14:31:32;19.00;81.30
23769;DHT22;12064;50.890;5.424;2023-04-24T14:40:23;18.90;81.50
23769;DHT22;12064;50.890;5.424;2023-04-24T14:49:13;19.00;81.70
23769;DHT22;12064;50.890;5.424;2023-04-24T14:58:04;19.00;81.60
23769;DHT22;12064;50.890;5.424;2023-04-24T15:06:55;19.00;81.90
23769;DHT22;12064;50.890;5.424;2023-04-24T15:15:46;19.00;81.80
23769;DHT22;12064;50.890;5.424;2023-04-24T15:24:37;19.00;82.00
23769;DHT22;12064;50.890;5.424;2023-04-24T15:33:28;19.00;81.90
23769;DHT22;12064;50.890;5.424;2023-04-24T15:42:19;19.00;82.00
23769;DHT22;12064;50.890;5.424;2023-04-24T15:51:09;19.10;82.10
23769;DHT22;12064;50.890;5.424;2023-04-24T16:00:01;19.10;81.90
23769;DHT22;12064;50.890;5.424;2023-04-24T16:08:51;19.00;82.00
23769;DHT22;12064;50.890;5.424;2023-04-24T16:17:42;19.00;82.00
23769;DHT22;12064;50.890;5.424;2023-04-24T16:26:33;19.00;82.00
23769;DHT22;12064;50.890;5.424;2023-04-24T16:35:24;19.00;81.80
23769;DHT22;12064;50.890;5.424;2023-04-24T16:44:14;19.00;81.80
23769;DHT22;12064;50.890;5.424;2023-04-24T16:53:05;19.00;81.80
23769;DHT22;12064;50.890;5.424;2023-04-24T17:01:56;19.10;81.80
23769;DHT22;12064;50.890;5.424;2023-04-24T17:10:47;19.00;82.00
23769;DHT22;12064;50.890;5.424;2023-04-24T17:19:38;19.00;82.00
23769;DHT22;12064;50.890;5.424;2023-04-24T17:28:30;19.00;82.10
23769;DHT22;12064;50.890;5.424;2023-04-24T17:37:21;19.00;82.10
23769;DHT22;12064;50.890;5.424;2023-04-24T17:46:12;19.00;82.00
23769;DHT22;12064;50.890;5.424;2023-04-24T17:55:03;18.90;82.00
23769;DHT22;12064;50.890;5.424;2023-04-24T18:03:54;19.00;82.20
23769;DHT22;12064;50.890;5.424;2023-04-24T18:12:46;19.00;82.20
23769;DHT22;12064;50.890;5.424;2023-04-24T18:21:36;18.90;82.20
23769;DHT22;12064;50.890;5.424;2023-04-24T18:30:27;18.90;82.20
23769;DHT22;12064;50.890;5.424;2023-04-24T18:39:20;18.90;82.30
23769;DHT22;12064;50.890;5.424;2023-04-24T18:48:11;18.90;82.40
23769;DHT22;12064;50.890;5.424;2023-04-24T18:57:01;18.90;82.40
23769;DHT22;12064;50.890;5.424;2023-04-24T19:05:52;18.90;82.40
23769;DHT22;12064;50.890;5.424;2023-04-24T19:14:44;18.90;82.40
23769;DHT22;12064;50.890;5.424;2023-04-24T19:23:35;18.80;82.40
23769;DHT22;12064;50.890;5.424;2023-04-24T19:32:26;18.80;82.50
23769;DHT22;12064;50.890;5.424;2023-04-24T19:41:16;18.80;82.60
23769;DHT22;12064;50.890;5.424;2023-04-24T19:50:07;18.80;82.60
23769;DHT22;12064;50.890;5.424;2023-04-24T19:58:59;18.80;82.90
23769;DHT22;12064;50.890;5.424;2023-04-24T20:07:50;18.80;82.70
23769;DHT22;12064;50.890;5.424;2023-04-24T20:16:41;18.80;82.70
23769;DHT22;12064;50.890;5.424;2023-04-24T20:25:32;18.70;82.90
23769;DHT22;12064;50.890;5.424;2023-04-24T20:34:23;18.70;83.00
23769;DHT22;12064;50.890;5.424;2023-04-24T20:43:14;18.70;82.90
23769;DHT22;12064;50.890;5.424;2023-04-24T20:52:07;18.60;83.20
23769;DHT22;12064;50.890;5.424;2023-04-24T21:00:58;18.70;83.90
23769;DHT22;12064;50.890;5.424;2023-04-24T21:09:49;18.70;83.20
23769;DHT22;12064;50.890;5.424;2023-04-24T21:18:40;18.70;83.20
23769;DHT22;12064;50.890;5.424;2023-04-24T21:27:31;18.70;83.20
23769;DHT22;12064;50.890;5.424;2023-04-24T21:36:22;18.70;83.30
23769;DHT22;12064;50.890;5.424;2023-04-24T21:45:12;18.60;83.40
23769;DHT22;12064;50.890;5.424;2023-04-24T21:54:03;18.70;84.20
23769;DHT22;12064;50.890;5.424;2023-04-24T22:02:54;18.70;83.50
23769;DHT22;12064;50.890;5.424;2023-04-24T22:11:44;18.70;83.60
23769;DHT22;12064;50.890;5.424;2023-04-24T22:20:35;18.60;83.80
23769;DHT22;12064;50.890;5.424;2023-04-24T22:29:26;18.60;83.80
23769;DHT22;12064;50.890;5.424;2023-04-24T22:38:17;18.60;84.10
23769;DHT22;12064;50.890;5.424;2023-04-24T22:47:08;18.60;84.10
23769;DHT22;12064;50.890;5.424;2023-04-24T22:55:59;18.60;84.10
23769;DHT22;12064;50.890;5.424;2023-04-24T23:04:49;18.60;84.20
23769;DHT22;12064;50.890;5.424;2023-04-24T23:13:40;18.60;84.40
23769;DHT22;12064;50.890;5.424;2023-04-24T23:22:31;18.60;84.70
23769;DHT22;12064;50.890;5.424;2023-04-24T23:31:23;18.50;84.60
23769;DHT22;12064;50.890;5.424;2023-04-24T23:40:13;18.50;84.80
23769;DHT22;12064;50.890;5.424;2023-04-24T23:49:04;18.50;84.80
23769;DHT22;12064;50.890;5.424;2023-04-24T23:57:55;18.50;84.90
